sensor_id;sensor_type;location;lat;lon;timestamp;pressure;altitude;pressure_sealevel;temperature;humidity
15646;BME280;7922;43.622;1.476;2023-05-03T00:00:47;100127.78;;;10.98;85.54
15646;BME280;7922;43.622;1.476;2023-05-03T00:03:12;100251.13;;;11.71;86.02
15646;BME280;7922;43.622;1.476;2023-05-03T00:05:38;100151.50;;;11.01;86.11
15646;BME280;7922;43.622;1.476;2023-05-03T00:08:03;100154.41;;;10.95;86.66
15646;BME280;7922;43.622;1.476;2023-05-03T00:10:28;100250.09;;;11.53;87.04
15646;BME280;7922;43.622;1.476;2023-05-03T00:12:54;100109.91;;;10.60;87.09
15646;BME280;7922;43.622;1.476;2023-05-03T00:15:19;100241.00;;;11.38;87.01
15646;BME280;7922;43.622;1.476;2023-05-03T00:17:44;100295.41;;;11.69;87.00
15646;BME280;7922;43.622;1.476;2023-05-03T00:20:10;100253.06;;;11.45;87.28
15646;BME280;7922;43.622;1.476;2023-05-03T00:22:35;100269.97;;;11.43;87.57
15646;BME280;7922;43.622;1.476;2023-05-03T00:25:01;100190.59;;;10.96;87.49
15646;BME280;7922;43.622;1.476;2023-05-03T00:27:27;100286.69;;;11.45;87.81
15646;BME280;7922;43.622;1.476;2023-05-03T00:29:52;100066.59;;;10.16;87.25
15646;BME280;7922;43.622;1.476;2023-05-03T00:32:19;100169.34;;;10.75;87.72
15646;BME280;7922;43.622;1.476;2023-05-03T00:34:45;100132.25;;;10.53;88.13
15646;BME280;7922;43.622;1.476;2023-05-03T00:37:10;100266.69;;;11.36;87.78
15646;BME280;7922;43.622;1.476;2023-05-03T00:39:35;100303.78;;;11.60;87.91
15646;BME280;7922;43.622;1.476;2023-05-03T00:42:01;100132.19;;;10.55;88.53
15646;BME280;7922;43.622;1.476;2023-05-03T00:44:27;100225.44;;;11.08;88.46
15646;BME280;7922;43.622;1.476;2023-05-03T00:46:53;100125.28;;;10.51;88.39
15646;BME280;7922;43.622;1.476;2023-05-03T00:49:19;100228.56;;;10.96;89.00
15646;BME280;7922;43.622;1.476;2023-05-03T00:51:45;100070.56;;;10.06;88.95
15646;BME280;7922;43.622;1.476;2023-05-03T00:54:10;100230.97;;;11.02;88.93
15646;BME280;7922;43.622;1.476;2023-05-03T00:56:37;100203.53;;;10.81;89.25
15646;BME280;7922;43.622;1.476;2023-05-03T00:59:03;100274.13;;;11.28;89.49
15646;BME280;7922;43.622;1.476;2023-05-03T01:01:29;100095.16;;;10.31;89.52
15646;BME280;7922;43.622;1.476;2023-05-03T01:03:55;100242.63;;;11.20;88.84
15646;BME280;7922;43.622;1.476;2023-05-03T01:06:44;100255.50;;;11.29;88.86
15646;BME280;7922;43.622;1.476;2023-05-03T01:09:36;100065.81;;;10.14;89.34
15646;BME280;7922;43.622;1.476;2023-05-03T01:12:15;100176.16;;;10.81;89.13
15646;BME280;7922;43.622;1.476;2023-05-03T01:17:34;100044.13;;;10.04;89.42
15646;BME280;7922;43.622;1.476;2023-05-03T01:20:04;100205.09;;;10.87;90.39
15646;BME280;7922;43.622;1.476;2023-05-03T01:22:45;100152.75;;;10.48;90.24
15646;BME280;7922;43.622;1.476;2023-05-03T01:25:12;100061.16;;;9.97;90.15
15646;BME280;7922;43.622;1.476;2023-05-03T01:27:39;100228.56;;;10.96;90.14
15646;BME280;7922;43.622;1.476;2023-05-03T01:30:07;100033.16;;;9.70;89.87
15646;BME280;7922;43.622;1.476;2023-05-03T01:35:07;100174.88;;;10.47;90.84
15646;BME280;7922;43.622;1.476;2023-05-03T01:37:36;100221.72;;;10.69;91.59
15646;BME280;7922;43.622;1.476;2023-05-03T01:40:03;100091.38;;;9.92;91.79
15646;BME280;7922;43.622;1.476;2023-05-03T01:42:28;100182.28;;;10.38;92.11
15646;BME280;7922;43.622;1.476;2023-05-03T01:44:54;100103.50;;;9.97;91.85
15646;BME280;7922;43.622;1.476;2023-05-03T01:47:20;100013.84;;;9.44;91.19
15646;BME280;7922;43.622;1.476;2023-05-03T01:49:45;100062.72;;;9.79;91.35
15646;BME280;7922;43.622;1.476;2023-05-03T01:52:11;100184.72;;;10.44;91.10
15646;BME280;7922;43.622;1.476;2023-05-03T01:54:36;100177.59;;;10.46;90.74
15646;BME280;7922;43.622;1.476;2023-05-03T01:57:01;100177.44;;;10.49;90.99
15646;BME280;7922;43.622;1.476;2023-05-03T01:59:27;100034.22;;;9.64;90.85
15646;BME280;7922;43.622;1.476;2023-05-03T02:01:52;100172.97;;;10.51;91.02
15646;BME280;7922;43.622;1.476;2023-05-03T02:04:17;100019.28;;;9.63;90.97
15646;BME280;7922;43.622;1.476;2023-05-03T02:06:43;100210.19;;;10.70;91.21
15646;BME280;7922;43.622;1.476;2023-05-03T02:09:08;100171.53;;;10.42;90.99
15646;BME280;7922;43.622;1.476;2023-05-03T02:11:33;100145.72;;;10.25;91.19
15646;BME280;7922;43.622;1.476;2023-05-03T02:13:59;100131.13;;;10.13;91.27
15646;BME280;7922;43.622;1.476;2023-05-03T02:16:24;100048.19;;;9.68;91.11
15646;BME280;7922;43.622;1.476;2023-05-03T02:18:49;100144.66;;;10.29;90.63
15646;BME280;7922;43.622;1.476;2023-05-03T02:21:14;100168.59;;;10.50;89.83
15646;BME280;7922;43.622;1.476;2023-05-03T02:23:40;99978.53;;;9.45;89.27
15646;BME280;7922;43.622;1.476;2023-05-03T02:26:06;100170.88;;;10.59;88.91
15646;BME280;7922;43.622;1.476;2023-05-03T02:28:31;99994.00;;;9.56;87.77
15646;BME280;7922;43.622;1.476;2023-05-03T02:30:56;100169.25;;;10.55;87.50
15646;BME280;7922;43.622;1.476;2023-05-03T02:33:21;99997.31;;;9.61;87.04
15646;BME280;7922;43.622;1.476;2023-05-03T02:35:47;100110.44;;;10.23;87.12
15646;BME280;7922;43.622;1.476;2023-05-03T02:38:12;100140.78;;;10.38;86.96
15646;BME280;7922;43.622;1.476;2023-05-03T02:40:37;100136.59;;;10.32;86.43
15646;BME280;7922;43.622;1.476;2023-05-03T02:43:03;100062.03;;;9.98;85.39
15646;BME280;7922;43.622;1.476;2023-05-03T02:45:29;100183.91;;;10.64;85.55
15646;BME280;7922;43.622;1.476;2023-05-03T02:47:54;100063.69;;;10.00;85.92
15646;BME280;7922;43.622;1.476;2023-05-03T02:50:19;100136.38;;;10.39;85.32
15646;BME280;7922;43.622;1.476;2023-05-03T02:52:44;99925.66;;;9.22;84.58
15646;BME280;7922;43.622;1.476;2023-05-03T02:55:10;100020.41;;;9.79;84.16
15646;BME280;7922;43.622;1.476;2023-05-03T02:57:35;100032.44;;;9.88;84.13
15646;BME280;7922;43.622;1.476;2023-05-03T03:00:00;99960.25;;;9.39;84.27
15646;BME280;7922;43.622;1.476;2023-05-03T03:02:26;100097.63;;;10.12;85.29
15646;BME280;7922;43.622;1.476;2023-05-03T03:04:51;100129.03;;;10.22;85.85
15646;BME280;7922;43.622;1.476;2023-05-03T03:07:16;99864.41;;;8.63;85.48
15646;BME280;7922;43.622;1.476;2023-05-03T03:09:41;99964.69;;;9.15;86.13
15646;BME280;7922;43.622;1.476;2023-05-03T03:12:07;99974.22;;;9.19;85.84
15646;BME280;7922;43.622;1.476;2023-05-03T03:14:32;100006.13;;;9.38;86.80
15646;BME280;7922;43.622;1.476;2023-05-03T03:16:57;100070.00;;;9.74;87.45
15646;BME280;7922;43.622;1.476;2023-05-03T03:19:23;100133.38;;;10.01;87.26
15646;BME280;7922;43.622;1.476;2023-05-03T03:21:48;100053.41;;;9.46;87.81
15646;BME280;7922;43.622;1.476;2023-05-03T03:24:13;100007.66;;;9.20;87.79
15646;BME280;7922;43.622;1.476;2023-05-03T03:26:38;100161.78;;;9.96;88.30
15646;BME280;7922;43.622;1.476;2023-05-03T03:29:04;100127.09;;;9.80;88.29
15646;BME280;7922;43.622;1.476;2023-05-03T03:31:29;99968.63;;;8.78;88.64
15646;BME280;7922;43.622;1.476;2023-05-03T03:33:54;99982.72;;;8.79;89.73
15646;BME280;7922;43.622;1.476;2023-05-03T03:36:19;100105.72;;;9.37;90.32
15646;BME280;7922;43.622;1.476;2023-05-03T03:38:45;99988.00;;;8.79;90.39
15646;BME280;7922;43.622;1.476;2023-05-03T03:41:10;99952.84;;;8.52;91.21
15646;BME280;7922;43.622;1.476;2023-05-03T03:43:35;100091.38;;;9.20;91.63
15646;BME280;7922;43.622;1.476;2023-05-03T03:46:01;99940.97;;;8.38;91.97
15646;BME280;7922;43.622;1.476;2023-05-03T03:48:26;100166.63;;;9.59;92.27
15646;BME280;7922;43.622;1.476;2023-05-03T03:50:51;100020.84;;;8.72;92.34
15646;BME280;7922;43.622;1.476;2023-05-03T03:53:17;100106.22;;;9.22;93.16
15646;BME280;7922;43.622;1.476;2023-05-03T03:55:42;99958.72;;;8.33;92.89
15646;BME280;7922;43.622;1.476;2023-05-03T03:58:07;100003.09;;;8.49;93.50
15646;BME280;7922;43.622;1.476;2023-05-03T04:00:33;100103.28;;;9.06;95.02
15646;BME280;7922;43.622;1.476;2023-05-03T04:02:59;99989.38;;;8.39;94.72
15646;BME280;7922;43.622;1.476;2023-05-03T04:05:24;100088.91;;;8.88;94.68
15646;BME280;7922;43.622;1.476;2023-05-03T04:07:49;100171.91;;;9.34;95.44
15646;BME280;7922;43.622;1.476;2023-05-03T04:10:15;100085.47;;;8.86;95.16
15646;BME280;7922;43.622;1.476;2023-05-03T04:12:40;100100.91;;;8.99;95.13
15646;BME280;7922;43.622;1.476;2023-05-03T04:15:06;100110.69;;;8.95;95.32
15646;BME280;7922;43.622;1.476;2023-05-03T04:17:31;100133.34;;;9.02;95.17
15646;BME280;7922;43.622;1.476;2023-05-03T04:19:56;100136.88;;;9.03;95.33
15646;BME280;7922;43.622;1.476;2023-05-03T04:22:22;99989.97;;;8.19;95.03
15646;BME280;7922;43.622;1.476;2023-05-03T04:24:47;100097.78;;;8.86;94.75
15646;BME280;7922;43.622;1.476;2023-05-03T04:27:12;100160.00;;;9.23;95.34
15646;BME280;7922;43.622;1.476;2023-05-03T04:29:37;100107.47;;;8.87;95.42
15646;BME280;7922;43.622;1.476;2023-05-03T04:32:03;100117.66;;;8.98;95.51
15646;BME280;7922;43.622;1.476;2023-05-03T04:34:28;99998.50;;;8.27;95.13
15646;BME280;7922;43.622;1.476;2023-05-03T04:36:53;100150.03;;;9.04;96.27
15646;BME280;7922;43.622;1.476;2023-05-03T04:39:19;100169.84;;;9.18;95.32
15646;BME280;7922;43.622;1.476;2023-05-03T04:41:44;100004.00;;;8.21;95.44
15646;BME280;7922;43.622;1.476;2023-05-03T04:44:09;100170.91;;;9.12;95.45
15646;BME280;7922;43.622;1.476;2023-05-03T04:46:34;99979.09;;;8.02;95.28
15646;BME280;7922;43.622;1.476;2023-05-03T04:49:00;100104.97;;;8.82;95.27
15646;BME280;7922;43.622;1.476;2023-05-03T04:51:25;100122.19;;;8.94;94.89
15646;BME280;7922;43.622;1.476;2023-05-03T04:53:50;100129.88;;;9.00;94.69
15646;BME280;7922;43.622;1.476;2023-05-03T04:56:15;100148.00;;;9.12;94.69
15646;BME280;7922;43.622;1.476;2023-05-03T04:58:41;100036.47;;;8.51;93.97
15646;BME280;7922;43.622;1.476;2023-05-03T05:01:06;100108.06;;;8.95;94.09
15646;BME280;7922;43.622;1.476;2023-05-03T05:03:32;100087.44;;;8.80;94.11
15646;BME280;7922;43.622;1.476;2023-05-03T05:05:57;100063.94;;;8.72;93.26
15646;BME280;7922;43.622;1.476;2023-05-03T05:08:23;100150.22;;;9.25;93.16
15646;BME280;7922;43.622;1.476;2023-05-03T05:10:48;100003.19;;;8.46;93.30
15646;BME280;7922;43.622;1.476;2023-05-03T05:13:14;100171.28;;;9.53;93.49
15646;BME280;7922;43.622;1.476;2023-05-03T05:15:39;100043.56;;;8.76;92.72
15646;BME280;7922;43.622;1.476;2023-05-03T05:18:04;100156.38;;;9.50;92.68
15646;BME280;7922;43.622;1.476;2023-05-03T05:20:30;99902.25;;;8.12;91.92
15646;BME280;7922;43.622;1.476;2023-05-03T05:22:55;100021.94;;;8.89;91.32
15646;BME280;7922;43.622;1.476;2023-05-03T05:25:20;100184.97;;;9.89;91.02
15646;BME280;7922;43.622;1.476;2023-05-03T05:27:46;100189.97;;;9.97;90.67
15646;BME280;7922;43.622;1.476;2023-05-03T05:30:11;100142.44;;;9.70;90.57
15646;BME280;7922;43.622;1.476;2023-05-03T05:32:37;100059.97;;;9.35;90.09
15646;BME280;7922;43.622;1.476;2023-05-03T05:35:02;100115.72;;;9.78;89.92
15646;BME280;7922;43.622;1.476;2023-05-03T05:37:27;100109.50;;;9.79;89.41
15646;BME280;7922;43.622;1.476;2023-05-03T05:39:53;100206.09;;;10.39;89.56
15646;BME280;7922;43.622;1.476;2023-05-03T05:42:19;100140.25;;;10.05;89.67
15646;BME280;7922;43.622;1.476;2023-05-03T05:44:44;100004.88;;;9.48;88.16
15646;BME280;7922;43.622;1.476;2023-05-03T05:47:09;100173.06;;;10.48;87.47
15646;BME280;7922;43.622;1.476;2023-05-03T05:49:35;100032.25;;;9.69;86.83
15646;BME280;7922;43.622;1.476;2023-05-03T05:52:00;100077.69;;;10.04;86.69
15646;BME280;7922;43.622;1.476;2023-05-03T05:54:25;100027.28;;;9.83;85.92
15646;BME280;7922;43.622;1.476;2023-05-03T05:56:51;100166.75;;;10.74;85.84
15646;BME280;7922;43.622;1.476;2023-05-03T05:59:16;100170.41;;;10.71;86.07
15646;BME280;7922;43.622;1.476;2023-05-03T06:01:42;100141.53;;;10.64;86.03
15646;BME280;7922;43.622;1.476;2023-05-03T06:04:07;100105.03;;;10.50;85.66
15646;BME280;7922;43.622;1.476;2023-05-03T06:06:32;100204.91;;;11.34;84.81
15646;BME280;7922;43.622;1.476;2023-05-03T06:08:57;100032.91;;;10.43;84.27
15646;BME280;7922;43.622;1.476;2023-05-03T06:11:23;100181.84;;;11.36;84.10
15646;BME280;7922;43.622;1.476;2023-05-03T06:13:48;99986.41;;;10.36;83.76
15646;BME280;7922;43.622;1.476;2023-05-03T06:16:13;100211.78;;;11.80;83.84
15646;BME280;7922;43.622;1.476;2023-05-03T06:18:38;100096.66;;;11.23;83.77
15646;BME280;7922;43.622;1.476;2023-05-03T06:21:04;100016.84;;;10.89;82.90
15646;BME280;7922;43.622;1.476;2023-05-03T06:23:29;100119.25;;;11.52;82.72
15646;BME280;7922;43.622;1.476;2023-05-03T06:25:54;100164.47;;;11.90;82.09
15646;BME280;7922;43.622;1.476;2023-05-03T06:28:19;100083.81;;;11.53;82.31
15646;BME280;7922;43.622;1.476;2023-05-03T06:30:48;100089.97;;;11.74;81.80
15646;BME280;7922;43.622;1.476;2023-05-03T06:33:14;100188.88;;;12.57;81.24
15646;BME280;7922;43.622;1.476;2023-05-03T06:35:39;100004.38;;;11.50;79.99
15646;BME280;7922;43.622;1.476;2023-05-03T06:38:04;100070.16;;;12.02;80.49
15646;BME280;7922;43.622;1.476;2023-05-03T06:40:29;100034.47;;;11.89;80.58
15646;BME280;7922;43.622;1.476;2023-05-03T06:42:55;100165.88;;;12.74;80.47
15646;BME280;7922;43.622;1.476;2023-05-03T06:45:20;100160.47;;;12.76;80.03
15646;BME280;7922;43.622;1.476;2023-05-03T06:47:45;100128.94;;;12.68;79.70
15646;BME280;7922;43.622;1.476;2023-05-03T06:50:10;100119.97;;;12.88;79.79
15646;BME280;7922;43.622;1.476;2023-05-03T06:52:36;100146.59;;;13.06;78.81
15646;BME280;7922;43.622;1.476;2023-05-03T06:55:02;100069.84;;;12.81;78.48
15646;BME280;7922;43.622;1.476;2023-05-03T06:57:27;100044.81;;;12.85;77.87
15646;BME280;7922;43.622;1.476;2023-05-03T06:59:53;100127.53;;;13.32;77.72
15646;BME280;7922;43.622;1.476;2023-05-03T07:02:18;100132.09;;;13.47;77.92
15646;BME280;7922;43.622;1.476;2023-05-03T07:04:43;100110.16;;;13.42;77.49
15646;BME280;7922;43.622;1.476;2023-05-03T07:07:08;100087.25;;;13.40;76.97
15646;BME280;7922;43.622;1.476;2023-05-03T07:09:34;100062.75;;;13.33;77.17
15646;BME280;7922;43.622;1.476;2023-05-03T07:11:59;100059.34;;;13.47;76.93
15646;BME280;7922;43.622;1.476;2023-05-03T07:14:24;100141.44;;;14.05;75.85
15646;BME280;7922;43.622;1.476;2023-05-03T07:16:49;100192.72;;;14.42;75.01
15646;BME280;7922;43.622;1.476;2023-05-03T07:19:15;100082.63;;;13.92;74.75
15646;BME280;7922;43.622;1.476;2023-05-03T07:21:40;100030.13;;;13.79;73.28
15646;BME280;7922;43.622;1.476;2023-05-03T07:24:05;100115.50;;;14.25;73.49
15646;BME280;7922;43.622;1.476;2023-05-03T07:26:31;100019.38;;;13.64;72.91
15646;BME280;7922;43.622;1.476;2023-05-03T07:28:56;100181.31;;;14.72;72.87
15646;BME280;7922;43.622;1.476;2023-05-03T07:31:22;100097.22;;;14.50;72.48
15646;BME280;7922;43.622;1.476;2023-05-03T07:33:47;100082.50;;;14.59;71.93
15646;BME280;7922;43.622;1.476;2023-05-03T07:36:12;100134.59;;;15.10;71.33
15646;BME280;7922;43.622;1.476;2023-05-03T07:38:38;100123.88;;;15.12;70.66
15646;BME280;7922;43.622;1.476;2023-05-03T07:41:03;100021.22;;;14.73;70.78
15646;BME280;7922;43.622;1.476;2023-05-03T07:43:29;100176.78;;;15.80;68.64
15646;BME280;7922;43.622;1.476;2023-05-03T07:45:54;100006.22;;;14.86;68.77
15646;BME280;7922;43.622;1.476;2023-05-03T07:48:20;100084.56;;;15.44;68.41
15646;BME280;7922;43.622;1.476;2023-05-03T07:50:45;100045.75;;;15.38;68.26
15646;BME280;7922;43.622;1.476;2023-05-03T07:53:11;100042.13;;;15.39;67.84
15646;BME280;7922;43.622;1.476;2023-05-03T07:55:36;100178.31;;;16.27;67.21
15646;BME280;7922;43.622;1.476;2023-05-03T07:58:01;100151.09;;;16.34;68.07
15646;BME280;7922;43.622;1.476;2023-05-03T08:00:27;100135.78;;;16.51;66.36
15646;BME280;7922;43.622;1.476;2023-05-03T08:02:52;100112.22;;;16.43;64.69
15646;BME280;7922;43.622;1.476;2023-05-03T08:05:18;100080.44;;;16.39;64.75
15646;BME280;7922;43.622;1.476;2023-05-03T08:07:43;100009.53;;;16.19;63.47
15646;BME280;7922;43.622;1.476;2023-05-03T08:10:09;100129.28;;;16.96;62.33
15646;BME280;7922;43.622;1.476;2023-05-03T08:12:34;100019.13;;;16.35;59.39
15646;BME280;7922;43.622;1.476;2023-05-03T08:15:00;100019.78;;;16.39;58.95
15646;BME280;7922;43.622;1.476;2023-05-03T08:17:25;99995.53;;;16.42;58.81
15646;BME280;7922;43.622;1.476;2023-05-03T08:19:50;100091.09;;;17.20;58.77
15646;BME280;7922;43.622;1.476;2023-05-03T08:22:16;100127.56;;;17.48;58.57
15646;BME280;7922;43.622;1.476;2023-05-03T08:24:41;100088.88;;;17.52;57.85
15646;BME280;7922;43.622;1.476;2023-05-03T08:27:07;100089.84;;;17.64;57.21
15646;BME280;7922;43.622;1.476;2023-05-03T08:29:33;100089.66;;;17.92;57.96
15646;BME280;7922;43.622;1.476;2023-05-03T08:31:58;100001.78;;;17.59;57.31
15646;BME280;7922;43.622;1.476;2023-05-03T08:34:24;100003.47;;;17.73;56.49
15646;BME280;7922;43.622;1.476;2023-05-03T08:36:50;100081.34;;;18.21;55.05
15646;BME280;7922;43.622;1.476;2023-05-03T08:39:15;100109.50;;;18.39;54.37
15646;BME280;7922;43.622;1.476;2023-05-03T08:41:41;100017.69;;;17.99;53.81
15646;BME280;7922;43.622;1.476;2023-05-03T08:44:07;100127.34;;;18.64;54.67
15646;BME280;7922;43.622;1.476;2023-05-03T08:46:35;99982.16;;;18.08;54.97
15646;BME280;7922;43.622;1.476;2023-05-03T08:49:01;100063.00;;;18.75;53.07
15646;BME280;7922;43.622;1.476;2023-05-03T08:51:26;100111.94;;;19.03;53.08
15646;BME280;7922;43.622;1.476;2023-05-03T08:53:51;99975.47;;;18.26;53.08
15646;BME280;7922;43.622;1.476;2023-05-03T08:56:28;100107.63;;;19.24;53.64
15646;BME280;7922;43.622;1.476;2023-05-03T08:58:53;99966.75;;;18.47;52.54
15646;BME280;7922;43.622;1.476;2023-05-03T09:01:19;100010.97;;;18.89;52.42
15646;BME280;7922;43.622;1.476;2023-05-03T09:03:48;100083.38;;;19.48;52.09
15646;BME280;7922;43.622;1.476;2023-05-03T09:06:18;100007.56;;;18.98;50.49
15646;BME280;7922;43.622;1.476;2023-05-03T09:08:44;99986.63;;;19.04;50.34
15646;BME280;7922;43.622;1.476;2023-05-03T09:11:22;100134.41;;;20.06;49.68
15646;BME280;7922;43.622;1.476;2023-05-03T09:13:47;100122.44;;;20.10;50.08
15646;BME280;7922;43.622;1.476;2023-05-03T09:16:24;100066.22;;;19.74;49.48
15646;BME280;7922;43.622;1.476;2023-05-03T09:19:02;100102.28;;;20.16;49.80
15646;BME280;7922;43.622;1.476;2023-05-03T09:21:28;100068.03;;;19.95;48.93
15646;BME280;7922;43.622;1.476;2023-05-03T09:23:53;100013.94;;;19.66;48.73
15646;BME280;7922;43.622;1.476;2023-05-03T09:26:36;100003.16;;;19.55;48.43
15646;BME280;7922;43.622;1.476;2023-05-03T09:29:03;100003.38;;;19.52;48.36
15646;BME280;7922;43.622;1.476;2023-05-03T09:31:29;100048.63;;;19.92;48.80
15646;BME280;7922;43.622;1.476;2023-05-03T09:33:56;100044.81;;;20.06;48.79
15646;BME280;7922;43.622;1.476;2023-05-03T09:36:22;99961.25;;;19.86;48.82
15646;BME280;7922;43.622;1.476;2023-05-03T09:38:48;100048.63;;;20.58;47.14
15646;BME280;7922;43.622;1.476;2023-05-03T09:41:14;100064.38;;;20.74;47.30
15646;BME280;7922;43.622;1.476;2023-05-03T09:43:57;99997.75;;;20.55;45.32
15646;BME280;7922;43.622;1.476;2023-05-03T09:46:22;99969.50;;;20.49;44.19
15646;BME280;7922;43.622;1.476;2023-05-03T09:48:47;99973.81;;;20.52;43.33
15646;BME280;7922;43.622;1.476;2023-05-03T09:51:13;100015.97;;;20.83;42.02
15646;BME280;7922;43.622;1.476;2023-05-03T09:53:39;100048.84;;;21.19;41.18
15646;BME280;7922;43.622;1.476;2023-05-03T09:56:08;100094.81;;;21.38;41.11
15646;BME280;7922;43.622;1.476;2023-05-03T09:58:34;100100.72;;;21.32;41.20
15646;BME280;7922;43.622;1.476;2023-05-03T10:01:00;99955.75;;;20.63;41.76
15646;BME280;7922;43.622;1.476;2023-05-03T10:03:47;100061.66;;;21.27;41.13
15646;BME280;7922;43.622;1.476;2023-05-03T10:06:32;100101.63;;;21.63;39.70
15646;BME280;7922;43.622;1.476;2023-05-03T10:09:02;99989.06;;;21.04;41.31
15646;BME280;7922;43.622;1.476;2023-05-03T10:11:29;99976.19;;;21.08;40.00
15646;BME280;7922;43.622;1.476;2023-05-03T10:13:54;100072.63;;;21.77;40.70
15646;BME280;7922;43.622;1.476;2023-05-03T10:16:26;100101.78;;;21.93;39.57
15646;BME280;7922;43.622;1.476;2023-05-03T10:22:02;100095.75;;;22.10;40.87
15646;BME280;7922;43.622;1.476;2023-05-03T10:24:28;99946.16;;;21.33;40.10
15646;BME280;7922;43.622;1.476;2023-05-03T10:26:54;100068.03;;;21.98;38.61
15646;BME280;7922;43.622;1.476;2023-05-03T10:29:43;100087.84;;;22.18;38.87
15646;BME280;7922;43.622;1.476;2023-05-03T10:32:28;100081.97;;;22.44;38.37
15646;BME280;7922;43.622;1.476;2023-05-03T10:35:01;100082.66;;;22.36;39.42
15646;BME280;7922;43.622;1.476;2023-05-03T10:37:27;100022.91;;;22.10;40.21
15646;BME280;7922;43.622;1.476;2023-05-03T10:39:53;100048.00;;;22.31;40.36
15646;BME280;7922;43.622;1.476;2023-05-03T10:42:23;99964.69;;;22.07;39.99
15646;BME280;7922;43.622;1.476;2023-05-03T10:44:49;100078.91;;;22.77;39.09
15646;BME280;7922;43.622;1.476;2023-05-03T10:47:16;100038.22;;;22.50;39.65
15646;BME280;7922;43.622;1.476;2023-05-03T10:49:41;99946.75;;;21.97;38.92
15646;BME280;7922;43.622;1.476;2023-05-03T10:55:01;100013.63;;;22.72;37.97
15646;BME280;7922;43.622;1.476;2023-05-03T10:57:28;100028.00;;;22.63;37.58
15646;BME280;7922;43.622;1.476;2023-05-03T10:59:56;100054.72;;;22.86;37.03
15646;BME280;7922;43.622;1.476;2023-05-03T11:02:26;99911.75;;;22.26;36.71
15646;BME280;7922;43.622;1.476;2023-05-03T11:04:57;99999.00;;;22.75;38.46
15646;BME280;7922;43.622;1.476;2023-05-03T11:07:26;100056.59;;;23.14;38.71
15646;BME280;7922;43.622;1.476;2023-05-03T11:09:51;100025.19;;;23.03;37.24
15646;BME280;7922;43.622;1.476;2023-05-03T11:12:16;99968.16;;;22.77;36.83
15646;BME280;7922;43.622;1.476;2023-05-03T11:14:42;100033.25;;;23.23;37.38
15646;BME280;7922;43.622;1.476;2023-05-03T11:17:07;100053.97;;;23.42;35.77
15646;BME280;7922;43.622;1.476;2023-05-03T11:19:33;100045.44;;;23.46;36.76
15646;BME280;7922;43.622;1.476;2023-05-03T11:21:59;100018.19;;;23.20;37.03
15646;BME280;7922;43.622;1.476;2023-05-03T11:24:26;99920.00;;;22.63;37.13
15646;BME280;7922;43.622;1.476;2023-05-03T11:26:51;99963.25;;;23.20;37.25
15646;BME280;7922;43.622;1.476;2023-05-03T11:29:16;100027.88;;;23.60;36.80
15646;BME280;7922;43.622;1.476;2023-05-03T11:31:42;100016.41;;;23.48;36.77
15646;BME280;7922;43.622;1.476;2023-05-03T11:34:09;99902.75;;;22.93;36.59
15646;BME280;7922;43.622;1.476;2023-05-03T11:36:34;99983.94;;;23.48;37.45
15646;BME280;7922;43.622;1.476;2023-05-03T11:39:00;99961.09;;;23.33;37.53
15646;BME280;7922;43.622;1.476;2023-05-03T11:41:25;99994.47;;;23.51;37.04
15646;BME280;7922;43.622;1.476;2023-05-03T11:43:51;99898.88;;;23.05;37.16
15646;BME280;7922;43.622;1.476;2023-05-03T11:46:20;99936.22;;;23.29;36.94
15646;BME280;7922;43.622;1.476;2023-05-03T11:48:46;99929.94;;;23.39;37.47
15646;BME280;7922;43.622;1.476;2023-05-03T11:51:12;99870.59;;;23.10;36.55
15646;BME280;7922;43.622;1.476;2023-05-03T11:53:38;99992.38;;;23.83;36.74
15646;BME280;7922;43.622;1.476;2023-05-03T11:56:06;99964.81;;;23.69;36.91
15646;BME280;7922;43.622;1.476;2023-05-03T11:58:32;100015.66;;;24.21;37.75
15646;BME280;7922;43.622;1.476;2023-05-03T12:00:57;100001.13;;;24.22;37.26
15646;BME280;7922;43.622;1.476;2023-05-03T12:03:29;100013.72;;;24.41;36.95
15646;BME280;7922;43.622;1.476;2023-05-03T12:05:55;100012.00;;;24.58;36.64
15646;BME280;7922;43.622;1.476;2023-05-03T12:08:21;99883.41;;;23.63;35.85
15646;BME280;7922;43.622;1.476;2023-05-03T12:10:49;99977.97;;;24.10;36.21
15646;BME280;7922;43.622;1.476;2023-05-03T12:13:29;99992.31;;;24.20;35.39
15646;BME280;7922;43.622;1.476;2023-05-03T12:15:58;99922.97;;;23.91;36.64
15646;BME280;7922;43.622;1.476;2023-05-03T12:18:24;99989.34;;;24.59;35.44
15646;BME280;7922;43.622;1.476;2023-05-03T12:20:54;99886.81;;;24.10;35.92
15646;BME280;7922;43.622;1.476;2023-05-03T12:23:20;99888.84;;;24.26;35.63
15646;BME280;7922;43.622;1.476;2023-05-03T12:25:46;99952.81;;;24.63;35.73
15646;BME280;7922;43.622;1.476;2023-05-03T12:28:11;99877.69;;;24.11;35.26
15646;BME280;7922;43.622;1.476;2023-05-03T12:30:37;99839.66;;;23.95;34.75
15646;BME280;7922;43.622;1.476;2023-05-03T12:33:02;99876.59;;;24.22;35.61
15646;BME280;7922;43.622;1.476;2023-05-03T12:35:27;99865.31;;;24.26;34.92
15646;BME280;7922;43.622;1.476;2023-05-03T12:37:52;99895.00;;;24.54;34.45
15646;BME280;7922;43.622;1.476;2023-05-03T12:40:18;99968.16;;;24.98;35.27
15646;BME280;7922;43.622;1.476;2023-05-03T12:42:43;99901.44;;;24.53;34.55
15646;BME280;7922;43.622;1.476;2023-05-03T12:45:10;99892.63;;;24.51;34.11
15646;BME280;7922;43.622;1.476;2023-05-03T12:47:35;99831.47;;;24.05;34.96
15646;BME280;7922;43.622;1.476;2023-05-03T12:50:04;99907.38;;;24.39;35.98
15646;BME280;7922;43.622;1.476;2023-05-03T12:52:29;99930.69;;;24.49;34.77
15646;BME280;7922;43.622;1.476;2023-05-03T12:54:55;99958.34;;;24.79;35.04
15646;BME280;7922;43.622;1.476;2023-05-03T12:57:20;99917.44;;;24.90;36.31
15646;BME280;7922;43.622;1.476;2023-05-03T12:59:45;99918.84;;;24.94;35.99
15646;BME280;7922;43.622;1.476;2023-05-03T13:02:11;99901.25;;;24.72;34.49
15646;BME280;7922;43.622;1.476;2023-05-03T13:04:36;99925.19;;;25.03;34.82
15646;BME280;7922;43.622;1.476;2023-05-03T13:07:01;99952.03;;;25.14;35.10
15646;BME280;7922;43.622;1.476;2023-05-03T13:09:27;99925.50;;;25.00;34.62
15646;BME280;7922;43.622;1.476;2023-05-03T13:11:52;99843.81;;;24.43;34.73